SBFL/FLN METAR and TAF weather

Enter ICAO airport designator
Station Type Date Time Source
SBFL METAR 2022/01/29 02:00 UTC NOAA

SBFL 290200Z 28003KT 9999 SCT040 BKN100 20/18 Q1013


Station Type Date Time Source
SBFL Decoded METAR 2022/01/29 02:00 UTC NOAA

Florianopolis Aeroporto , Brazil (SBFL) 27-40S 048-33W 5M
Jan 28, 2022 - 09:00 PM EST / 2022.01.29 0200 UTC
Wind: from the W (280 degrees) at 3 MPH (3 KT):0
Visibility: greater than 7 mile(s):0
Sky conditions: mostly cloudy
Temperature: 68 F (20 C)
Dew Point: 64 F (18 C)
Relative Humidity: 88%
Pressure (altimeter): 29.91 in. Hg (1013 hPa)
ob: SBFL 290200Z 28003KT 9999 SCT040 BKN100 20/18 Q1013
cycle: 2

Station Type Date Time Source
SBFL TAF 2022/01/28 18:03 UTC NOAA

TAF SBFL 281500Z 2818/2918 18015KT 8000 SCT015 SCT045 TX25/2818Z TN21/2909Z
TEMPO 2819/2822 4500 RA BR BKN014
BECMG 2822/2824 18008KT PROB40 2904/2908 BKN012
RMK PEU

Example: see airport list